Time;durP1;ratioP1;P1;durP2;ratioP2;P2;SDS_P1;SDS_P2;PMS_P1;PMS_P2;Temp;Humidity;BMP_temperature;BMP_pressure;BME280_temperature;BME280_humidity;BME280_pressure;Samples;Min_cycle;Max_cycle;Signal;HPM_P1;HPM_P2
2023/07/28 00:00:31;;;;;;;33.53;13.38;;;18.20;99.90;;;;;;5071342;28;20110;-71
2023/07/28 00:02:57;;;;;;;28.25;12.75;;;18.10;99.90;;;;;;5071171;28;20047;-70
2023/07/28 00:05:23;;;;;;;31.50;13.98;;;18.00;99.90;;;;;;5071327;28;20094;-70
2023/07/28 00:07:48;;;;;;;37.70;15.32;;;18.20;99.90;;;;;;5053388;28;20047;-70
2023/07/28 00:10:14;;;;;;;34.78;14.48;;;18.00;99.90;;;;;;5053531;28;20139;-71
2023/07/28 00:12:39;;;;;;;32.78;13.93;;;18.00;99.90;;;;;;5071102;28;20079;-71
2023/07/28 00:15:05;;;;;;;33.95;14.30;;;17.80;99.90;;;;;;5071239;28;20090;-71
2023/07/28 00:17:31;;;;;;;35.00;14.40;;;18.30;99.90;;;;;;5071261;28;20120;-71
2023/07/28 00:19:56;;;;;;;35.85;14.90;;;18.30;99.90;;;;;;5071345;28;20450;-71
2023/07/28 00:22:22;;;;;;;34.17;14.40;;;17.80;99.90;;;;;;5071031;28;20040;-71
2023/07/28 00:24:47;;;;;;;29.52;12.70;;;18.20;99.90;;;;;;5071241;28;20079;-70
2023/07/28 00:27:14;;;;;;;26.60;11.68;;;18.30;99.90;;;;;;5070988;28;20523;-71
2023/07/28 00:29:41;;;;;;;27.48;11.98;;;18.10;99.90;;;;;;5071134;28;20111;-71
2023/07/28 00:32:07;;;;;;;31.02;12.02;;;18.20;99.90;;;;;;5070977;28;20048;-71
2023/07/28 00:34:32;;;;;;;23.15;11.55;;;18.30;99.90;;;;;;5071301;28;20043;-71
2023/07/28 00:36:58;;;;;;;30.80;12.10;;;17.90;99.90;;;;;;5053017;28;20503;-71
2023/07/28 00:39:23;;;;;;;22.67;12.43;;;17.90;99.90;;;;;;5071076;28;20590;-71
2023/07/28 00:41:49;;;;;;;28.33;13.10;;;17.90;99.90;;;;;;5053154;28;20040;-70
2023/07/28 00:44:16;;;;;;;31.13;12.18;;;18.30;99.90;;;;;;5070881;28;20385;-71
2023/07/28 00:46:42;;;;;;;27.38;12.45;;;18.20;99.90;;;;;;5052795;28;20052;-71
2023/07/28 00:49:08;;;;;;;23.75;11.57;;;18.00;99.90;;;;;;5070944;28;20036;-71
2023/07/28 00:51:35;;;;;;;33.13;14.40;;;18.20;99.90;;;;;;5071112;28;20044;-71
2023/07/28 00:54:02;;;;;;;26.80;12.93;;;18.30;99.90;;;;;;5071031;28;20040;-70
2023/07/28 00:56:28;;;;;;;28.92;12.40;;;17.90;99.90;;;;;;5070672;28;20063;-71
2023/07/28 00:58:54;;;;;;;32.05;14.45;;;18.00;99.90;;;;;;5070810;28;20384;-70
2023/07/28 01:01:19;;;;;;;31.75;13.63;;;18.30;99.90;;;;;;5056268;28;20063;-70
2023/07/28 01:03:45;;;;;;;30.20;14.15;;;18.10;99.90;;;;;;5074266;28;20044;-71
2023/07/28 01:06:20;;;;;;;34.30;13.55;;;17.90;99.90;;;;;;5074378;28;20032;-71
2023/07/28 01:09:05;;;;;;;28.90;14.48;;;18.30;99.90;;;;;;5074290;28;20036;-70
2023/07/28 01:11:31;;;;;;;31.35;15.27;;;18.10;99.90;;;;;;5074051;28;20097;-71
2023/07/28 01:13:57;;;;;;;33.13;14.95;;;18.10;99.90;;;;;;5074373;28;20111;-71
2023/07/28 01:16:23;;;;;;;34.80;14.85;;;18.30;99.90;;;;;;5074200;28;20037;-70
2023/07/28 01:18:49;;;;;;;32.75;15.10;;;18.00;99.90;;;;;;5074107;28;20120;-70
2023/07/28 01:21:26;;;;;;;42.85;15.68;;;18.20;99.90;;;;;;5074163;28;20204;-71
2023/07/28 01:24:18;;;;;;;38.63;16.75;;;17.90;99.90;;;;;;5073911;28;20048;-71
2023/07/28 01:26:45;;;;;;;37.70;15.13;;;18.20;99.90;;;;;;5056004;28;20404;-70
2023/07/28 01:29:12;;;;;;;40.72;17.75;;;18.10;99.90;;;;;;5074064;28;20036;-70
2023/07/28 01:31:39;;;;;;;32.17;16.95;;;18.00;99.90;;;;;;5073751;28;20377;-71
2023/07/28 01:34:04;;;;;;;40.92;17.55;;;17.90;99.90;;;;;;5073758;28;20507;-71
2023/07/28 01:36:30;;;;;;;40.55;17.20;;;18.20;99.90;;;;;;5038890;28;20075;-70
2023/07/28 01:38:56;;;;;;;40.10;17.10;;;18.20;99.90;;;;;;5055836;28;20458;-70
2023/07/28 01:41:21;;;;;;;35.67;17.13;;;17.90;99.90;;;;;;5055782;28;20041;-71
2023/07/28 01:43:47;;;;;;;39.92;16.50;;;17.90;99.90;;;;;;5073484;28;20093;-71
2023/07/28 01:46:12;;;;;;;36.88;16.85;;;18.20;99.90;;;;;;5055391;28;20044;-71
2023/07/28 01:48:38;;;;;;;41.45;17.75;;;17.90;99.90;;;;;;5073477;28;20115;-70
2023/07/28 01:51:03;;;;;;;42.70;17.15;;;18.00;99.90;;;;;;5055518;28;20127;-70
2023/07/28 01:53:29;;;;;;;35.17;17.98;;;17.90;99.90;;;;;;5055487;28;20055;-70
2023/07/28 01:55:55;;;;;;;42.92;18.08;;;18.20;99.90;;;;;;5073356;28;20044;-70
2023/07/28 01:58:20;;;;;;;45.15;17.90;;;18.00;99.90;;;;;;5073303;28;20036;-70
2023/07/28 02:00:48;;;;;;;37.63;18.20;;;17.90;99.90;;;;;;5055374;28;20039;-70
2023/07/28 02:03:14;;;;;;;36.90;18.05;;;18.20;99.90;;;;;;5055199;28;20060;-71
2023/07/28 02:05:39;;;;;;;38.30;17.98;;;18.20;99.90;;;;;;5055426;28;20044;-71
2023/07/28 02:08:05;;;;;;;36.78;18.40;;;17.90;99.90;;;;;;5055259;28;20486;-70
2023/07/28 02:10:31;;;;;;;34.70;17.30;;;18.10;99.90;;;;;;5055179;28;20033;-71
2023/07/28 02:12:56;;;;;;;39.70;18.30;;;18.30;99.90;;;;;;5106165;23;20139;-72
2023/07/28 02:15:22;;;;;;;33.22;16.88;;;17.80;99.90;;;;;;5113601;28;20047;-72
2023/07/28 02:17:47;;;;;;;37.38;17.15;;;18.00;99.90;;;;;;5112126;28;20039;-72
2023/07/28 02:20:15;;;;;;;35.55;16.15;;;18.00;99.90;;;;;;5113523;28;20047;-72
2023/07/28 02:22:41;;;;;;;36.60;17.00;;;18.00;99.90;;;;;;5112257;28;20487;-72
2023/07/28 02:25:07;;;;;;;36.83;15.73;;;18.20;99.90;;;;;;5112174;28;20103;-72
2023/07/28 02:27:32;;;;;;;33.00;17.10;;;18.30;99.90;;;;;;5113241;28;20031;-72
2023/07/28 02:29:58;;;;;;;29.85;14.73;;;18.40;99.90;;;;;;5113314;28;20100;-72
2023/07/28 02:32:24;;;;;;;31.70;16.10;;;18.00;99.90;;;;;;5111846;28;20046;-72
2023/07/28 02:34:49;;;;;;;33.20;15.85;;;17.90;99.90;;;;;;5112098;28;20040;-71
2023/07/28 02:37:15;;;;;;;39.67;16.55;;;17.90;99.90;;;;;;5111706;28;20095;-71
2023/07/28 02:39:41;;;;;;;33.85;16.00;;;17.90;99.90;;;;;;5113398;28;20051;-72
2023/07/28 02:42:07;;;;;;;38.60;17.42;;;18.20;99.90;;;;;;5111913;28;20040;-71
2023/07/28 02:44:32;;;;;;;34.75;17.08;;;18.30;99.90;;;;;;5111703;28;20047;-72
2023/07/28 02:46:58;;;;;;;41.30;16.58;;;18.30;99.90;;;;;;5113009;28;20032;-71
2023/07/28 02:49:23;;;;;;;35.10;16.38;;;18.30;99.90;;;;;;5113235;28;20037;-71
2023/07/28 02:51:49;;;;;;;33.65;17.40;;;18.30;99.90;;;;;;5113078;28;20111;-71
2023/07/28 02:54:14;;;;;;;33.10;14.98;;;18.20;99.90;;;;;;5112938;28;20043;-72
2023/07/28 02:56:40;;;;;;;35.22;16.27;;;18.30;99.90;;;;;;5112798;28;20035;-72
2023/07/28 02:59:06;;;;;;;32.15;16.20;;;17.90;99.90;;;;;;5111554;28;20243;-72
2023/07/28 03:01:35;;;;;;;26.95;14.38;;;18.30;99.90;;;;;;5112723;28;20055;-72
2023/07/28 03:04:03;;;;;;;29.25;15.63;;;18.30;99.90;;;;;;5111532;28;20112;-72
2023/07/28 03:06:29;;;;;;;30.20;14.32;;;17.90;99.90;;;;;;5112414;28;20491;-72
2023/07/28 03:08:55;;;;;;;32.72;16.17;;;18.20;99.90;;;;;;5111593;28;20110;-72
2023/07/28 03:11:20;;;;;;;38.10;17.08;;;17.80;99.90;;;;;;5111238;28;20144;-72
2023/07/28 03:13:46;;;;;;;36.60;15.82;;;18.10;99.90;;;;;;5112448;28;20039;-72
2023/07/28 03:16:12;;;;;;;33.53;17.08;;;18.30;99.90;;;;;;5111200;28;20047;-72
2023/07/28 03:18:37;;;;;;;35.72;16.52;;;18.20;99.90;;;;;;5112444;28;20043;-72
2023/07/28 03:21:03;;;;;;;29.45;15.68;;;17.90;99.90;;;;;;5112660;28;20410;-72
2023/07/28 03:23:29;;;;;;;34.92;14.65;;;18.10;99.90;;;;;;5111657;28;20418;-72
2023/07/28 03:25:54;;;;;;;29.50;15.38;;;18.40;99.90;;;;;;5111430;28;20114;-72
2023/07/28 03:28:20;;;;;;;25.40;14.93;;;18.20;99.90;;;;;;5110792;28;20028;-72
2023/07/28 03:30:46;;;;;;;31.23;14.82;;;18.00;99.90;;;;;;5094168;28;20441;-72
2023/07/28 03:33:11;;;;;;;26.27;14.15;;;17.80;99.90;;;;;;5110910;28;20046;-72
2023/07/28 03:35:37;;;;;;;29.98;15.52;;;18.20;99.90;;;;;;5112448;28;20430;-72
2023/07/28 03:38:03;;;;;;;32.55;14.30;;;17.80;99.90;;;;;;5112072;28;20036;-72
2023/07/28 03:40:28;;;;;;;37.85;14.32;;;18.20;99.90;;;;;;5112110;28;20032;-72
2023/07/28 03:42:54;;;;;;;24.95;14.93;;;17.80;99.90;;;;;;5112163;28;20088;-72
2023/07/28 03:45:20;;;;;;;34.55;14.77;;;18.20;99.90;;;;;;5110738;28;20052;-72
2023/07/28 03:47:45;;;;;;;33.90;15.80;;;17.90;99.90;;;;;;5111889;28;20031;-72
2023/07/28 03:50:11;;;;;;;30.13;15.43;;;17.80;99.90;;;;;;5111124;28;20123;-72
2023/07/28 03:52:36;;;;;;;19.98;12.95;;;18.10;99.90;;;;;;5112097;28;20518;-72
2023/07/28 03:55:02;;;;;;;27.90;14.05;;;18.00;99.90;;;;;;5110823;28;20039;-72
2023/07/28 03:57:28;;;;;;;25.77;14.07;;;17.80;99.90;;;;;;5111743;28;20043;-72
2023/07/28 03:59:53;;;;;;;26.90;14.50;;;18.00;99.90;;;;;;5112201;28;20483;-72
2023/07/28 04:02:19;;;;;;;27.27;13.98;;;17.90;99.90;;;;;;5110654;28;20043;-72
2023/07/28 04:04:44;;;;;;;28.65;14.00;;;18.10;99.90;;;;;;5111779;28;20039;-72
2023/07/28 04:07:10;;;;;;;30.50;12.88;;;18.20;99.90;;;;;;5110196;28;20036;-72
2023/07/28 04:09:36;;;;;;;27.33;13.00;;;18.30;99.90;;;;;;5110204;28;20058;-73
2023/07/28 04:12:01;;;;;;;23.00;12.65;;;18.30;99.90;;;;;;5111544;28;20039;-72
2023/07/28 04:14:27;;;;;;;27.70;13.23;;;18.20;99.90;;;;;;5110693;28;20510;-72
2023/07/28 04:16:53;;;;;;;20.77;11.75;;;18.30;99.90;;;;;;5111256;28;20036;-72
2023/07/28 04:19:18;;;;;;;30.60;12.88;;;18.00;99.90;;;;;;5111544;28;20043;-72
2023/07/28 04:21:45;;;;;;;23.98;12.88;;;18.10;99.90;;;;;;5111457;28;20042;-72
2023/07/28 04:24:11;;;;;;;28.60;12.90;;;17.80;99.90;;;;;;5110063;28;20082;-72
2023/07/28 04:26:37;;;;;;;22.98;11.57;;;17.90;99.90;;;;;;5109799;28;20035;-72
2023/07/28 04:29:02;;;;;;;22.67;12.73;;;18.00;99.90;;;;;;5110087;28;20046;-72
2023/07/28 04:31:28;;;;;;;31.05;12.40;;;18.30;99.90;;;;;;5109918;28;20036;-72
2023/07/28 04:33:53;;;;;;;23.20;12.45;;;18.10;99.90;;;;;;5111473;28;20044;-72
2023/07/28 04:36:19;;;;;;;22.85;11.45;;;18.20;99.90;;;;;;5096435;28;20036;-72
2023/07/28 04:38:45;;;;;;;22.92;11.70;;;17.80;99.90;;;;;;5093102;28;20495;-72
2023/07/28 04:41:10;;;;;;;26.20;11.70;;;18.10;99.90;;;;;;5093311;28;20036;-72
2023/07/28 04:43:36;;;;;;;19.23;10.55;;;17.90;99.90;;;;;;5093276;28;20418;-72
2023/07/28 04:46:01;;;;;;;24.23;12.20;;;17.90;99.90;;;;;;5094718;28;20032;-72
2023/07/28 04:48:27;;;;;;;22.33;12.32;;;18.30;99.90;;;;;;5094576;28;20137;-72
2023/07/28 04:50:53;;;;;;;26.05;12.65;;;17.90;99.90;;;;;;5094676;28;20486;-72
2023/07/28 04:53:19;;;;;;;26.05;12.50;;;18.40;99.90;;;;;;5093196;28;20173;-73
2023/07/28 04:55:45;;;;;;;21.27;11.82;;;18.40;99.90;;;;;;5094346;28;20032;-72
2023/07/28 04:58:10;;;;;;;22.13;10.63;;;18.00;99.90;;;;;;5093061;28;20036;-72
2023/07/28 05:00:36;;;;;;;22.85;11.77;;;18.00;99.90;;;;;;5094577;28;20542;-72
2023/07/28 05:03:02;;;;;;;26.90;11.35;;;17.90;99.90;;;;;;5094089;28;20040;-72
2023/07/28 05:05:29;;;;;;;19.27;10.68;;;17.90;99.90;;;;;;5094117;28;20123;-72
2023/07/28 05:07:54;;;;;;;24.73;11.35;;;18.30;99.90;;;;;;5094120;28;20077;-72
2023/07/28 05:10:20;;;;;;;22.92;10.77;;;18.40;99.90;;;;;;5092761;28;20040;-72
2023/07/28 05:12:45;;;;;;;21.40;11.48;;;18.50;99.90;;;;;;5092249;28;20047;-72
2023/07/28 05:15:13;;;;;;;25.58;10.75;;;18.20;99.90;;;;;;5094237;28;20082;-72
2023/07/28 05:17:39;;;;;;;21.92;10.98;;;18.00;99.90;;;;;;5092502;28;20039;-72
2023/07/28 05:20:05;;;;;;;21.30;11.75;;;18.30;99.90;;;;;;5094147;28;20088;-72
2023/07/28 05:22:30;;;;;;;20.15;10.25;;;18.20;99.90;;;;;;5093986;28;20040;-73
2023/07/28 05:24:56;;;;;;;20.17;10.50;;;17.90;99.90;;;;;;5093826;28;20444;-72
2023/07/28 05:27:21;;;;;;;17.00;9.32;;;18.00;99.90;;;;;;5092335;28;20040;-72
2023/07/28 05:29:47;;;;;;;18.35;9.43;;;18.10;99.90;;;;;;5091277;28;20040;-72
2023/07/28 05:32:12;;;;;;;19.88;10.82;;;18.10;99.90;;;;;;5093449;28;20040;-72
2023/07/28 05:34:41;;;;;;;20.38;9.55;;;18.50;99.90;;;;;;5092543;28;20039;-72
2023/07/28 05:37:07;;;;;;;18.10;9.48;;;18.00;99.90;;;;;;5093508;28;20043;-72
2023/07/28 05:39:32;;;;;;;25.83;9.50;;;18.10;99.90;;;;;;5092431;28;20118;-72
2023/07/28 05:41:58;;;;;;;19.75;9.93;;;18.40;99.90;;;;;;5075217;28;20044;-72
2023/07/28 05:44:23;;;;;;;20.13;9.52;;;18.00;99.90;;;;;;5093541;28;20070;-72
2023/07/28 05:46:49;;;;;;;20.85;10.25;;;18.20;99.90;;;;;;5092728;28;20028;-72
2023/07/28 05:49:15;;;;;;;20.50;9.90;;;18.60;99.90;;;;;;5093559;28;20036;-73
2023/07/28 05:51:41;;;;;;;18.65;9.68;;;18.30;99.90;;;;;;5093337;28;20415;-72
2023/07/28 05:54:07;;;;;;;20.85;10.65;;;18.40;99.90;;;;;;5092049;28;20451;-72
2023/07/28 05:56:32;;;;;;;16.92;10.10;;;18.50;99.90;;;;;;5091954;28;20063;-73
2023/07/28 05:58:58;;;;;;;18.55;10.77;;;18.30;99.90;;;;;;5093157;28;20040;-72
2023/07/28 06:01:25;;;;;;;19.20;10.20;;;18.20;99.90;;;;;;5092011;28;20043;-72
2023/07/28 06:03:51;;;;;;;17.02;9.60;;;18.00;99.90;;;;;;5092020;28;20036;-72
2023/07/28 06:06:18;;;;;;;21.52;11.13;;;18.10;99.90;;;;;;5092987;28;20044;-73
2023/07/28 06:08:44;;;;;;;17.92;10.40;;;18.60;99.90;;;;;;5091617;28;20051;-73
2023/07/28 06:11:09;;;;;;;24.02;11.05;;;18.60;99.90;;;;;;5092927;28;20040;-73
2023/07/28 06:13:35;;;;;;;20.95;10.52;;;18.30;99.90;;;;;;5092346;28;20407;-73
2023/07/28 06:16:01;;;;;;;23.13;11.43;;;18.70;99.90;;;;;;5091557;28;20047;-73
2023/07/28 06:18:26;;;;;;;20.58;10.45;;;18.30;99.90;;;;;;5101307;28;20096;-72
2023/07/28 06:20:52;;;;;;;25.50;11.27;;;18.30;99.90;;;;;;5112020;28;20038;-72
2023/07/28 06:23:17;;;;;;;17.90;10.20;;;18.70;99.90;;;;;;5102890;28;20043;-72
2023/07/28 06:25:45;;;;;;;20.73;10.15;;;18.70;99.90;;;;;;5111894;28;20031;-72
2023/07/28 06:28:11;;;;;;;20.17;9.68;;;18.50;99.90;;;;;;5094595;28;20047;-72
2023/07/28 06:30:37;;;;;;;18.63;9.98;;;18.70;99.90;;;;;;5113130;28;20452;-72
2023/07/28 06:33:06;;;;;;;16.15;10.55;;;18.40;99.90;;;;;;5104899;28;20568;-71
2023/07/28 06:35:32;;;;;;;20.17;10.23;;;18.70;99.90;;;;;;5075695;28;20047;-72
2023/07/28 06:37:57;;;;;;;19.35;10.18;;;18.70;99.90;;;;;;5111258;28;20035;-72
2023/07/28 06:40:23;;;;;;;11.93;9.15;;;18.50;99.90;;;;;;5112606;28;20038;-72
2023/07/28 06:42:48;;;;;;;14.60;9.95;;;18.40;99.90;;;;;;5106694;28;20111;-72
2023/07/28 06:45:14;;;;;;;18.42;10.18;;;18.40;99.90;;;;;;5106049;28;20086;-71
2023/07/28 06:47:40;;;;;;;15.52;9.70;;;18.80;99.90;;;;;;5112307;28;20036;-71
2023/07/28 06:50:05;;;;;;;14.40;9.90;;;18.90;99.90;;;;;;5111205;28;20035;-71
2023/07/28 06:52:31;;;;;;;10.75;8.77;;;18.60;99.90;;;;;;5112367;28;20035;-71
2023/07/28 06:54:57;;;;;;;16.25;9.02;;;18.60;99.90;;;;;;5103917;28;20035;-71
2023/07/28 06:57:22;;;;;;;13.93;8.45;;;18.40;99.90;;;;;;5096550;28;20036;-71
2023/07/28 06:59:49;;;;;;;12.73;9.48;;;18.30;99.90;;;;;;5094617;28;20032;-71
2023/07/28 07:02:15;;;;;;;13.20;9.43;;;18.60;99.90;;;;;;5099178;28;20551;-71
2023/07/28 07:04:41;;;;;;;13.75;9.68;;;18.40;99.90;;;;;;5110910;28;20050;-71
2023/07/28 07:07:07;;;;;;;13.10;9.45;;;18.40;99.90;;;;;;5112053;28;20032;-71
2023/07/28 07:09:32;;;;;;;14.05;9.68;;;18.70;99.90;;;;;;5111095;28;20040;-71
2023/07/28 07:11:58;;;;;;;15.73;10.18;;;18.30;99.90;;;;;;5105925;28;20093;-71
2023/07/28 07:14:24;;;;;;;11.75;9.10;;;18.80;99.90;;;;;;5112348;28;20123;-71
2023/07/28 07:16:49;;;;;;;17.05;9.68;;;19.00;99.90;;;;;;5110935;28;20126;-71
2023/07/28 07:19:15;;;;;;;15.20;9.88;;;19.00;99.90;;;;;;5112166;28;20494;-71
2023/07/28 07:21:41;;;;;;;15.45;10.05;;;18.90;99.90;;;;;;5110742;28;20127;-72
2023/07/28 07:24:09;;;;;;;12.85;9.80;;;19.30;99.90;;;;;;5112175;28;20043;-71
2023/07/28 07:26:35;;;;;;;13.85;9.75;;;19.00;99.90;;;;;;5110719;28;20483;-71
2023/07/28 07:29:01;;;;;;;12.20;8.30;;;18.90;99.90;;;;;;5112156;28;20042;-72
2023/07/28 07:31:27;;;;;;;10.60;8.13;;;19.10;99.90;;;;;;5112011;28;20089;-71
2023/07/28 07:33:52;;;;;;;13.40;9.10;;;19.50;99.90;;;;;;5111965;28;20131;-71
2023/07/28 07:36:19;;;;;;;11.80;8.23;;;19.10;99.90;;;;;;5110404;28;20071;-72
2023/07/28 07:38:48;;;;;;;11.70;8.10;;;19.50;99.90;;;;;;5111980;28;20063;-71
2023/07/28 07:41:19;;;;;;;10.43;8.75;;;19.50;99.90;;;;;;5110818;28;20059;-71
2023/07/28 07:43:45;;;;;;;10.82;8.57;;;19.60;99.90;;;;;;5111782;28;20499;-72
2023/07/28 07:46:10;;;;;;;13.98;8.73;;;19.60;99.90;;;;;;5110444;28;20032;-72
2023/07/28 07:48:36;;;;;;;11.07;8.52;;;19.20;99.90;;;;;;5110311;28;20031;-72
2023/07/28 07:51:02;;;;;;;13.45;8.75;;;19.50;99.90;;;;;;5111745;28;20555;-73
2023/07/28 07:53:27;;;;;;;12.77;7.88;;;19.10;99.90;;;;;;5110414;28;20043;-72
2023/07/28 07:55:53;;;;;;;10.48;8.13;;;19.30;99.90;;;;;;5110500;28;20042;-71
2023/07/28 07:58:18;;;;;;;11.45;7.95;;;19.20;99.90;;;;;;5111424;28;20032;-72
2023/07/28 08:00:44;;;;;;;9.98;7.75;;;19.80;99.90;;;;;;5111803;28;20517;-72
2023/07/28 08:03:10;;;;;;;10.02;7.63;;;19.80;99.90;;;;;;5110269;28;20093;-72
2023/07/28 08:05:35;;;;;;;10.02;8.25;;;19.50;99.90;;;;;;5110391;28;20039;-72
2023/07/28 08:08:01;;;;;;;8.55;7.40;;;19.70;99.90;;;;;;5114203;28;20380;-72
2023/07/28 08:10:27;;;;;;;9.75;7.18;;;19.20;99.90;;;;;;5117018;28;20036;-72
2023/07/28 08:12:53;;;;;;;10.57;8.13;;;19.60;99.90;;;;;;5102441;22;20491;-72
2023/07/28 08:15:19;;;;;;;9.68;7.13;;;19.80;99.90;;;;;;5057082;28;20041;-72
2023/07/28 08:17:45;;;;;;;9.90;7.10;;;19.20;99.90;;;;;;5066960;28;20043;-72
2023/07/28 08:20:12;;;;;;;13.05;7.72;;;19.50;99.90;;;;;;5074978;28;20045;-72
2023/07/28 08:22:37;;;;;;;9.65;7.32;;;19.60;99.90;;;;;;5075176;28;20045;-72
2023/07/28 08:25:04;;;;;;;9.13;7.15;;;19.30;99.90;;;;;;5075102;28;20041;-72
2023/07/28 08:27:29;;;;;;;9.30;7.07;;;19.70;99.90;;;;;;5074855;28;20040;-72
2023/07/28 08:29:55;;;;;;;9.57;6.80;;;19.60;99.90;;;;;;5043311;28;20036;-72
2023/07/28 08:32:21;;;;;;;9.95;7.00;;;19.30;99.90;;;;;;5044974;28;20045;-72
2023/07/28 08:34:47;;;;;;;9.45;6.57;;;19.50;99.90;;;;;;5042119;28;20489;-72
2023/07/28 08:37:13;;;;;;;6.82;6.00;;;19.90;99.90;;;;;;5042819;28;20037;-72
2023/07/28 08:39:39;;;;;;;5.80;5.18;;;19.60;99.90;;;;;;5037424;28;20100;-72
2023/07/28 08:42:04;;;;;;;9.27;6.05;;;19.60;99.90;;;;;;5035008;28;20044;-72
2023/07/28 08:44:34;;;;;;;8.90;5.53;;;19.80;99.90;;;;;;5033507;28;20128;-72
2023/07/28 08:47:01;;;;;;;7.60;6.10;;;19.70;99.90;;;;;;5034524;28;20041;-72
2023/07/28 08:49:27;;;;;;;6.13;5.35;;;20.20;99.90;;;;;;5033417;28;20049;-72
2023/07/28 08:51:58;;;;;;;7.28;5.90;;;20.20;99.90;;;;;;5033221;28;20049;-71
2023/07/28 08:54:23;;;;;;;9.63;5.95;;;20.40;99.90;;;;;;5033749;28;20045;-72
2023/07/28 08:56:49;;;;;;;8.77;5.60;;;20.50;99.90;;;;;;5032977;28;20048;-72
2023/07/28 08:59:27;;;;;;;6.43;4.70;;;20.20;99.90;;;;;;5034652;28;20049;-72
2023/07/28 09:01:55;;;;;;;5.65;4.97;;;21.10;99.90;;;;;;5034420;28;20109;-72
2023/07/28 09:04:24;;;;;;;6.25;4.85;;;21.10;99.90;;;;;;5033038;28;20485;-72
2023/07/28 09:06:50;;;;;;;5.05;4.03;;;21.70;99.90;;;;;;5032698;28;20041;-71
2023/07/28 09:09:17;;;;;;;5.65;4.70;;;21.80;99.90;;;;;;5033421;28;20057;-72
2023/07/28 09:11:53;;;;;;;6.38;3.45;;;21.80;99.90;;;;;;5034262;28;20044;-72
2023/07/28 09:14:20;;;;;;;4.00;3.60;;;21.40;99.90;;;;;;5034204;28;20420;-73
2023/07/28 09:16:47;;;;;;;5.22;3.30;;;20.90;99.90;;;;;;5034113;28;20040;-73
2023/07/28 09:19:13;;;;;;;4.20;3.33;;;21.20;99.90;;;;;;5039270;28;20056;-72
2023/07/28 09:21:45;;;;;;;2.90;2.58;;;21.50;99.90;;;;;;5033196;28;20048;-72
2023/07/28 09:24:12;;;;;;;3.28;2.97;;;21.80;99.90;;;;;;5034077;28;20049;-72
2023/07/28 09:26:42;;;;;;;4.07;2.60;;;21.40;99.90;;;;;;5032375;28;20040;-72
2023/07/28 09:29:15;;;;;;;3.92;3.00;;;21.90;99.90;;;;;;5032696;28;20041;-72
2023/07/28 09:31:41;;;;;;;6.35;3.40;;;21.80;99.90;;;;;;5034144;28;20401;-69
2023/07/28 09:34:11;;;;;;;5.97;3.00;;;21.70;99.90;;;;;;5036674;28;20045;-72
2023/07/28 09:36:38;;;;;;;4.70;3.30;;;22.10;99.90;;;;;;5052734;28;20048;-71
2023/07/28 09:39:07;;;;;;;5.18;3.50;;;21.60;99.90;;;;;;5053590;28;20041;-71
2023/07/28 09:41:35;;;;;;;4.35;3.40;;;21.70;99.90;;;;;;5052143;28;20060;-71
2023/07/28 09:44:01;;;;;;;4.18;3.58;;;21.20;99.90;;;;;;5053582;28;20123;-71
2023/07/28 09:46:29;;;;;;;6.75;3.55;;;20.80;99.90;;;;;;5053414;28;20115;-72
2023/07/28 09:48:58;;;;;;;4.97;3.67;;;21.40;99.90;;;;;;5052364;28;20041;-71
2023/07/28 09:51:30;;;;;;;5.22;3.70;;;21.70;99.90;;;;;;5052284;28;20067;-71
2023/07/28 09:54:04;;;;;;;4.53;3.00;;;21.70;99.90;;;;;;5035622;28;20048;-71
2023/07/28 09:56:30;;;;;;;4.00;3.30;;;21.60;99.90;;;;;;5053259;28;20460;-71
2023/07/28 09:58:57;;;;;;;5.90;2.92;;;21.70;99.90;;;;;;5053215;28;20563;-71
2023/07/28 10:01:23;;;;;;;5.38;2.83;;;21.90;99.90;;;;;;5053413;28;20073;-71
2023/07/28 10:03:50;;;;;;;4.60;3.20;;;21.50;99.90;;;;;;5053058;28;20611;-71
2023/07/28 10:06:16;;;;;;;4.15;3.03;;;22.00;99.90;;;;;;5035395;28;20447;-71
2023/07/28 10:08:43;;;;;;;5.97;3.65;;;21.90;99.90;;;;;;5051700;28;20049;-71
2023/07/28 10:11:11;;;;;;;4.35;3.40;;;21.30;99.90;;;;;;5051918;28;20037;-71
2023/07/28 10:13:44;;;;;;;7.75;3.85;;;21.60;99.90;;;;;;5052780;28;20619;-71
2023/07/28 10:16:14;;;;;;;4.40;3.20;;;21.80;99.90;;;;;;5052886;28;20116;-71
2023/07/28 10:18:40;;;;;;;5.60;3.42;;;21.10;99.90;;;;;;5052809;28;20044;-71
2023/07/28 10:21:15;;;;;;;4.40;3.28;;;21.20;99.90;;;;;;5052881;28;20037;-71
2023/07/28 10:23:41;;;;;;;6.30;3.35;;;20.70;99.90;;;;;;5052995;28;20064;-71
2023/07/28 10:26:07;;;;;;;4.60;3.45;;;20.70;99.90;;;;;;5051790;28;20471;-71
2023/07/28 10:28:41;;;;;;;4.03;3.53;;;21.40;99.90;;;;;;5052751;28;20068;-71
2023/07/28 10:31:11;;;;;;;5.93;3.38;;;21.50;99.90;;;;;;5052841;28;20547;-71
2023/07/28 10:33:43;;;;;;;4.68;3.22;;;21.10;99.90;;;;;;5053103;28;20440;-71
2023/07/28 10:36:32;;;;;;;4.72;2.90;;;21.30;99.90;;;;;;5052843;28;20033;-71
2023/07/28 10:39:17;;;;;;;3.35;2.72;;;21.30;99.90;;;;;;5052959;28;20135;-71
2023/07/28 10:42:20;;;;;;;5.10;3.08;;;21.20;99.90;;;;;;5052692;28;20041;-71
2023/07/28 10:44:46;;;;;;;6.43;3.42;;;20.90;99.90;;;;;;5051494;28;20044;-71
2023/07/28 10:47:12;;;;;;;4.25;3.50;;;21.20;99.90;;;;;;5052610;28;20044;-71
2023/07/28 10:49:38;;;;;;;4.05;3.35;;;21.60;99.90;;;;;;5052719;28;20117;-71
2023/07/28 10:52:04;;;;;;;6.43;2.63;;;21.70;99.90;;;;;;5052298;28;20072;-71
2023/07/28 10:54:31;;;;;;;4.15;2.58;;;21.80;99.90;;;;;;5052499;28;20056;-71
2023/07/28 10:57:02;;;;;;;4.85;3.05;;;21.70;99.90;;;;;;5052203;28;20032;-71
2023/07/28 10:59:30;;;;;;;4.70;2.63;;;21.50;99.90;;;;;;5052423;28;20043;-71
2023/07/28 11:01:56;;;;;;;3.83;2.60;;;21.80;99.90;;;;;;5050895;28;20040;-71
2023/07/28 11:04:23;;;;;;;5.53;2.70;;;21.60;99.90;;;;;;5051968;28;20052;-71
2023/07/28 11:06:51;;;;;;;7.35;3.40;;;21.60;99.90;;;;;;5051730;28;20500;-71
2023/07/28 11:09:18;;;;;;;5.05;3.13;;;22.00;99.90;;;;;;5050677;28;20086;-71
2023/07/28 11:11:45;;;;;;;6.13;2.90;;;21.70;99.90;;;;;;5052019;28;20029;-72
2023/07/28 11:14:11;;;;;;;4.43;2.55;;;22.20;99.90;;;;;;5050614;28;20088;-71
2023/07/28 11:16:39;;;;;;;7.40;3.38;;;22.30;99.90;;;;;;5050509;28;20404;-71
2023/07/28 11:19:11;;;;;;;4.57;2.60;;;22.10;99.90;;;;;;5051804;28;20045;-71
2023/07/28 11:21:38;;;;;;;4.30;2.90;;;21.90;99.90;;;;;;5050299;28;20056;-72
2023/07/28 11:24:05;;;;;;;7.50;3.35;;;21.80;99.90;;;;;;5051674;28;20176;-71
2023/07/28 11:26:32;;;;;;;9.45;2.85;;;22.40;99.90;;;;;;5051444;28;20044;-71
2023/07/28 11:28:59;;;;;;;7.47;2.85;;;22.20;99.90;;;;;;5050352;28;20493;-71
2023/07/28 11:31:25;;;;;;;6.15;2.25;;;22.80;99.90;;;;;;5050341;28;20570;-71
2023/07/28 11:33:53;;;;;;;4.75;2.80;;;22.70;99.90;;;;;;5050083;28;20037;-71
2023/07/28 11:36:25;;;;;;;4.53;2.10;;;22.90;99.90;;;;;;5051685;28;20044;-71
2023/07/28 11:38:53;;;;;;;8.95;2.50;;;22.60;99.90;;;;;;5050271;28;20111;-71
2023/07/28 11:41:20;;;;;;;3.58;2.22;;;22.90;99.90;;;;;;5051479;28;20455;-71
2023/07/28 11:43:48;;;;;;;6.00;2.38;;;23.10;99.90;;;;;;5050845;28;20041;-71
2023/07/28 11:46:33;;;;;;;2.78;1.95;;;22.90;99.90;;;;;;5050116;28;20065;-71
2023/07/28 11:49:22;;;;;;;4.95;2.45;;;23.00;99.90;;;;;;5051542;28;20051;-71
2023/07/28 11:51:49;;;;;;;3.72;2.17;;;22.90;99.90;;;;;;5051497;28;20033;-72
2023/07/28 11:54:21;;;;;;;5.18;2.45;;;23.00;99.90;;;;;;5051388;28;20060;-71
2023/07/28 11:56:48;;;;;;;5.80;2.25;;;23.30;99.90;;;;;;5050918;28;20037;-71
2023/07/28 11:59:18;;;;;;;3.95;1.92;;;23.30;99.90;;;;;;5051554;28;20037;-71
2023/07/28 12:01:54;;;;;;;2.97;1.90;;;23.10;99.90;;;;;;5051107;28;20063;-71
2023/07/28 12:04:24;;;;;;;3.17;1.75;;;23.10;99.90;;;;;;5051276;28;20560;-71
2023/07/28 12:07:09;;;;;;;6.88;1.75;;;22.80;99.90;;;;;;5050926;28;20377;-71
2023/07/28 12:09:48;;;;;;;7.60;2.00;;;23.00;99.90;;;;;;5051076;28;20040;-71
2023/07/28 12:12:18;;;;;;;2.20;1.67;;;23.20;99.90;;;;;;5051138;28;20041;-72
2023/07/28 12:14:46;;;;;;;4.45;2.17;;;23.00;99.90;;;;;;5050101;28;20051;-71
2023/07/28 12:17:20;;;;;;;2.42;1.75;;;23.00;99.90;;;;;;5049508;28;20056;-71
2023/07/28 12:20:05;;;;;;;4.10;1.98;;;22.70;99.90;;;;;;5050993;28;20037;-71
2023/07/28 12:22:32;;;;;;;3.88;1.77;;;23.20;99.90;;;;;;5051104;28;20076;-71
2023/07/28 12:24:57;;;;;;;4.78;1.80;;;23.10;99.90;;;;;;5049785;28;20037;-71
2023/07/28 12:27:26;;;;;;;3.72;1.83;;;22.80;99.90;;;;;;5050863;28;20041;-71
2023/07/28 12:29:52;;;;;;;4.47;1.65;;;23.10;99.90;;;;;;5050993;28;20033;-71
2023/07/28 12:32:19;;;;;;;3.67;1.60;;;23.10;99.90;;;;;;5050876;28;20400;-71
2023/07/28 12:34:45;;;;;;;5.32;1.85;;;23.10;99.90;;;;;;5051265;28;20140;-71